Login to view Products
 
Thursday, December 12, 2019 (16:48 UTC)
Abu Dhabi International Airport
Last Updated: 12-Dec-2019 (16:47Z)
Wind Dir/Speed: WNW at 07 kt
Temperature: 23.4°C
Rel. Humidity: 57 %
Pressure: 1013.4 hPa
Visibility: 10000 m
ACTUALS:
  • METAR OMAA 121600Z 30009KT CAVOK 24/15 Q1013 NOSIG
  • TAF OMAA 121100Z 1212/1318 31013KT 8000 FEW035 BECMG 1219/1221 25005KT PROB30 1301/1304 4000 HZ BECMG 1301/1303 16006KT BECMG 1309/1311 33011KT=
D:\Input Parser\Destinations\Final\11\OMAAL121811002020396532.txt
1